Time;durP1;ratioP1;P1;durP2;ratioP2;P2;SDS_P1;SDS_P2;PMS_P1;PMS_P2;Temp;Humidity;BMP_temperature;BMP_pressure;BME280_temperature;BME280_humidity;BME280_pressure;Samples;Min_cycle;Max_cycle;Signal;HPM_P1;HPM_P2
2023/12/30 00:00:57;;;;;;;4.57;0.60;;;7.00;99.90;;;;;;4947344;28;20039;-73
2023/12/30 00:03:23;;;;;;;2.70;0.50;;;7.00;99.90;;;;;;4959534;28;20042;-73
2023/12/30 00:05:48;;;;;;;4.38;0.68;;;7.00;99.90;;;;;;4967058;28;20053;-73
2023/12/30 00:08:14;;;;;;;3.50;0.50;;;7.00;99.90;;;;;;4959264;28;20046;-71
2023/12/30 00:10:39;;;;;;;3.03;0.75;;;7.00;99.90;;;;;;4947890;29;20479;-72
2023/12/30 00:13:05;;;;;;;7.25;1.02;;;6.90;99.90;;;;;;4950270;28;20031;-74
2023/12/30 00:15:31;;;;;;;11.57;2.00;;;6.90;99.90;;;;;;4947935;28;20036;-75
2023/12/30 00:17:56;;;;;;;6.00;0.52;;;6.90;99.90;;;;;;4950860;28;20546;-72
2023/12/30 00:20:22;;;;;;;8.05;1.90;;;7.00;99.90;;;;;;4947668;28;20032;-74
2023/12/30 00:22:48;;;;;;;9.18;0.70;;;6.80;99.90;;;;;;4948752;28;20530;-72
2023/12/30 00:25:13;;;;;;;5.85;1.35;;;6.80;99.90;;;;;;4946767;28;20064;-72
2023/12/30 00:27:39;;;;;;;9.25;0.70;;;6.80;99.90;;;;;;4947897;28;20035;-72
2023/12/30 00:30:05;;;;;;;7.25;0.70;;;6.70;99.90;;;;;;4948299;28;20487;-72
2023/12/30 00:32:32;;;;;;;7.95;1.17;;;6.70;99.90;;;;;;4947023;28;20534;-73
2023/12/30 00:34:58;;;;;;;5.78;1.15;;;6.70;99.90;;;;;;4947474;28;20031;-75
2023/12/30 00:37:23;;;;;;;10.77;0.82;;;6.70;99.90;;;;;;4958679;28;20039;-72
2023/12/30 00:39:50;;;;;;;8.70;1.25;;;6.60;99.90;;;;;;4947430;28;20044;-75
2023/12/30 00:42:15;;;;;;;3.88;0.55;;;6.70;99.90;;;;;;4956462;28;20046;-73
2023/12/30 00:44:41;;;;;;;4.80;0.70;;;6.60;99.90;;;;;;4964669;28;20062;-73
2023/12/30 00:47:07;;;;;;;7.80;1.05;;;6.60;99.90;;;;;;4945562;28;20093;-74
2023/12/30 00:49:33;;;;;;;1.83;0.40;;;6.60;99.90;;;;;;4946832;28;20522;-72
2023/12/30 00:51:59;;;;;;;16.15;1.95;;;6.60;99.90;;;;;;4946604;28;20035;-73
2023/12/30 00:54:24;;;;;;;6.03;0.82;;;6.50;99.90;;;;;;4948392;28;20129;-74
2023/12/30 00:56:50;;;;;;;4.60;1.40;;;6.50;99.90;;;;;;4951250;28;20043;-73
2023/12/30 00:59:16;;;;;;;7.43;0.40;;;6.50;99.90;;;;;;4949834;28;20115;-73
2023/12/30 01:01:41;;;;;;;6.57;1.20;;;6.50;99.90;;;;;;4951872;28;20069;-74
2023/12/30 01:04:07;;;;;;;3.03;0.47;;;6.50;99.90;;;;;;4950712;28;20039;-73
2023/12/30 01:06:33;;;;;;;4.68;0.68;;;6.50;99.90;;;;;;4950955;28;20027;-73
2023/12/30 01:09:00;;;;;;;8.15;1.20;;;6.40;99.90;;;;;;4954942;28;20054;-73
2023/12/30 01:11:26;;;;;;;2.55;0.65;;;6.40;99.90;;;;;;4950070;28;20440;-73
2023/12/30 01:13:51;;;;;;;6.78;0.50;;;6.40;99.90;;;;;;4957842;28;20046;-73
2023/12/30 01:16:17;;;;;;;7.43;1.75;;;6.40;99.90;;;;;;4968695;28;20037;-73
2023/12/30 01:18:43;;;;;;;5.45;0.43;;;6.30;99.90;;;;;;4970983;28;20525;-75
2023/12/30 01:21:08;;;;;;;6.63;0.82;;;6.30;99.90;;;;;;4968525;28;20121;-74
2023/12/30 01:23:34;;;;;;;5.07;0.95;;;6.30;99.90;;;;;;4970886;28;20402;-73
2023/12/30 01:25:59;;;;;;;6.22;1.38;;;6.30;99.90;;;;;;4970118;28;20057;-73
2023/12/30 01:28:25;;;;;;;7.78;0.20;;;6.30;99.90;;;;;;4953304;28;20073;-73
2023/12/30 01:30:51;;;;;;;4.97;0.70;;;6.20;99.90;;;;;;4961533;28;20109;-73
2023/12/30 01:33:17;;;;;;;4.15;0.93;;;6.20;99.90;;;;;;4955621;28;20031;-73
2023/12/30 01:35:43;;;;;;;5.65;1.08;;;6.20;99.90;;;;;;4969441;28;20034;-73
2023/12/30 01:38:08;;;;;;;5.65;0.50;;;6.20;99.90;;;;;;4963942;28;20157;-74
2023/12/30 01:40:34;;;;;;;5.90;0.85;;;6.10;99.90;;;;;;4969070;28;20065;-73
2023/12/30 01:43:02;;;;;;;11.20;1.92;;;6.10;99.90;;;;;;4949980;28;20047;-73
2023/12/30 01:45:28;;;;;;;9.85;0.60;;;6.10;99.90;;;;;;4949547;28;20066;-73
2023/12/30 01:47:54;;;;;;;11.75;1.88;;;6.10;99.90;;;;;;4955680;28;20054;-75
2023/12/30 01:50:21;;;;;;;11.23;0.93;;;6.10;99.90;;;;;;4954903;28;20059;-74
2023/12/30 01:52:47;;;;;;;9.80;1.40;;;6.10;99.90;;;;;;4950020;28;20039;-72
2023/12/30 01:55:15;;;;;;;10.40;0.77;;;6.10;99.90;;;;;;4967927;28;20035;-73
2023/12/30 01:57:44;;;;;;;2.40;0.47;;;6.10;99.90;;;;;;4967872;28;20035;-73
2023/12/30 02:00:14;;;;;;;12.10;0.93;;;6.10;99.90;;;;;;4948833;28;20031;-73
2023/12/30 02:02:41;;;;;;;6.55;0.52;;;6.10;99.90;;;;;;4950858;28;20090;-75
2023/12/30 02:05:08;;;;;;;7.35;0.60;;;6.20;99.90;;;;;;4966574;28;20754;-73
2023/12/30 02:07:33;;;;;;;12.18;0.77;;;6.20;99.90;;;;;;4966303;28;20035;-73
2023/12/30 02:09:59;;;;;;;6.20;0.90;;;6.20;99.90;;;;;;4949111;28;20201;-73
2023/12/30 02:12:25;;;;;;;3.97;0.38;;;6.20;99.90;;;;;;4950797;28;20072;-73
2023/12/30 02:14:50;;;;;;;8.48;0.80;;;6.20;99.90;;;;;;4969933;28;20066;-73
2023/12/30 02:17:16;;;;;;;7.43;1.85;;;6.20;99.90;;;;;;4967508;28;20062;-73
2023/12/30 02:19:41;;;;;;;5.70;0.50;;;6.20;99.90;;;;;;4968437;28;20023;-73
2023/12/30 02:22:07;;;;;;;5.65;0.60;;;6.20;99.90;;;;;;4965197;28;20039;-73
2023/12/30 02:24:32;;;;;;;8.27;0.77;;;6.20;99.90;;;;;;4949258;28;20038;-75
2023/12/30 02:26:58;;;;;;;4.40;0.63;;;6.20;99.90;;;;;;4965325;28;20035;-73
2023/12/30 02:29:23;;;;;;;7.20;0.20;;;6.20;99.90;;;;;;4967905;28;20382;-74
2023/12/30 02:31:49;;;;;;;5.75;1.02;;;6.20;99.90;;;;;;4969776;28;20069;-73
2023/12/30 02:34:17;;;;;;;18.08;0.90;;;6.20;99.90;;;;;;4967251;28;20031;-72
2023/12/30 02:36:43;;;;;;;5.93;0.98;;;6.20;99.90;;;;;;4969895;28;20030;-74
2023/12/30 02:39:09;;;;;;;2.97;0.47;;;6.20;99.90;;;;;;4962926;28;20384;-73
2023/12/30 02:41:35;;;;;;;9.55;1.88;;;6.20;99.90;;;;;;4951277;28;20027;-72
2023/12/30 02:44:02;;;;;;;4.97;0.70;;;6.20;99.90;;;;;;4952983;28;20054;-73
2023/12/30 02:46:27;;;;;;;8.95;0.60;;;6.20;99.90;;;;;;4963288;28;20045;-72
2023/12/30 02:48:53;;;;;;;5.90;0.82;;;6.20;99.90;;;;;;4964867;28;20379;-74
2023/12/30 02:51:19;;;;;;;5.55;0.63;;;6.20;99.90;;;;;;4947984;28;20466;-73
2023/12/30 02:53:45;;;;;;;8.65;1.85;;;6.20;99.90;;;;;;4948735;28;20070;-73
2023/12/30 02:56:25;;;;;;;5.57;0.73;;;6.20;99.90;;;;;;4947824;28;20043;-72
2023/12/30 02:59:01;;;;;;;7.78;1.63;;;6.20;99.90;;;;;;4931007;29;20375;-73
2023/12/30 03:01:31;;;;;;;4.57;1.33;;;6.10;99.90;;;;;;4928499;29;20027;-73
2023/12/30 03:03:59;;;;;;;5.07;0.93;;;6.10;99.90;;;;;;4928959;29;20809;-73
2023/12/30 03:06:26;;;;;;;12.00;0.70;;;6.10;99.90;;;;;;4928724;29;20024;-74
2023/12/30 03:08:52;;;;;;;13.45;0.82;;;6.10;99.90;;;;;;4961751;28;20058;-73
2023/12/30 03:11:18;;;;;;;28.70;1.67;;;6.10;99.90;;;;;;4966896;28;20033;-73
2023/12/30 03:13:44;;;;;;;5.13;0.43;;;6.10;99.90;;;;;;4967430;28;20042;-72
2023/12/30 03:16:16;;;;;;;6.25;0.50;;;6.10;99.90;;;;;;4966826;28;20049;-72
2023/12/30 03:18:43;;;;;;;6.22;0.50;;;6.00;99.90;;;;;;4959182;28;20452;-73
2023/12/30 03:21:11;;;;;;;2.70;0.63;;;6.00;99.90;;;;;;4951182;28;20130;-72
2023/12/30 03:23:37;;;;;;;6.00;1.08;;;6.00;99.90;;;;;;4957106;28;20125;-74
2023/12/30 03:26:04;;;;;;;6.53;0.90;;;5.90;99.90;;;;;;4952945;28;20070;-73
2023/12/30 03:28:29;;;;;;;4.97;0.73;;;5.90;99.90;;;;;;4948034;29;20110;-72
2023/12/30 03:30:55;;;;;;;6.95;1.45;;;5.90;99.90;;;;;;4947748;28;20138;-74
2023/12/30 03:33:21;;;;;;;6.32;1.10;;;5.90;99.90;;;;;;4947273;28;20400;-72
2023/12/30 03:35:46;;;;;;;4.13;0.70;;;5.80;99.90;;;;;;4947982;29;20043;-73
2023/12/30 03:38:12;;;;;;;4.95;0.73;;;5.80;99.90;;;;;;4946967;28;20086;-73
2023/12/30 03:40:37;;;;;;;2.83;0.40;;;5.80;99.90;;;;;;4947900;28;20210;-74
2023/12/30 03:43:03;;;;;;;9.52;1.55;;;5.80;99.90;;;;;;4948161;28;20054;-73
2023/12/30 03:45:29;;;;;;;11.50;1.27;;;5.90;99.90;;;;;;4948302;28;20443;-74
2023/12/30 03:47:55;;;;;;;3.92;0.80;;;5.80;99.90;;;;;;4955898;28;20500;-75
2023/12/30 03:50:20;;;;;;;5.40;1.08;;;5.80;99.90;;;;;;4947894;28;20047;-75
2023/12/30 03:52:46;;;;;;;4.20;0.93;;;5.80;99.90;;;;;;4951685;28;20035;-73
2023/12/30 03:55:12;;;;;;;13.00;1.17;;;5.80;99.90;;;;;;4952276;28;20035;-73
2023/12/30 03:57:38;;;;;;;5.25;0.50;;;5.80;99.90;;;;;;4949473;28;20078;-73
2023/12/30 04:00:04;;;;;;;6.00;1.75;;;5.80;99.90;;;;;;4957068;28;20047;-73
2023/12/30 04:02:30;;;;;;;5.38;0.60;;;5.80;99.90;;;;;;4962661;28;20043;-74
2023/12/30 04:04:56;;;;;;;8.63;0.90;;;5.80;99.90;;;;;;4966498;28;20089;-73
2023/12/30 04:07:21;;;;;;;10.30;1.02;;;5.90;99.90;;;;;;4963036;28;20035;-74
2023/12/30 04:09:47;;;;;;;3.75;1.00;;;5.90;99.90;;;;;;4949562;28;20032;-73
2023/12/30 04:12:12;;;;;;;3.35;0.73;;;5.90;99.90;;;;;;4966081;28;20454;-75
2023/12/30 04:14:38;;;;;;;4.60;0.70;;;5.90;99.90;;;;;;4968486;28;20030;-73
2023/12/30 04:17:04;;;;;;;3.83;0.88;;;5.90;99.90;;;;;;4966549;28;20036;-74
2023/12/30 04:19:29;;;;;;;9.35;1.10;;;5.90;99.90;;;;;;4971871;28;20031;-74
2023/12/30 04:21:55;;;;;;;4.85;0.85;;;5.90;99.90;;;;;;4957518;28;20074;-76
2023/12/30 04:24:22;;;;;;;4.65;0.47;;;5.90;99.90;;;;;;4968256;28;20050;-74
2023/12/30 04:26:49;;;;;;;6.95;1.60;;;5.90;99.90;;;;;;4961282;28;20036;-75
2023/12/30 04:29:15;;;;;;;4.15;0.73;;;5.90;99.90;;;;;;4957088;28;20046;-74
2023/12/30 04:31:41;;;;;;;4.35;0.70;;;5.90;99.90;;;;;;4965398;28;20058;-74
2023/12/30 04:34:06;;;;;;;4.85;0.50;;;5.90;99.90;;;;;;4972698;28;20023;-74
2023/12/30 04:36:32;;;;;;;7.20;0.73;;;5.90;99.90;;;;;;4958611;28;20110;-74
2023/12/30 04:38:58;;;;;;;4.38;0.47;;;5.80;99.90;;;;;;4964966;28;20043;-74
2023/12/30 04:41:24;;;;;;;4.97;0.52;;;5.80;99.90;;;;;;4966435;28;20042;-73
2023/12/30 04:43:49;;;;;;;7.07;0.77;;;5.80;99.90;;;;;;4968635;28;20471;-73
2023/12/30 04:46:15;;;;;;;9.15;1.88;;;5.70;99.90;;;;;;4956382;28;20036;-73
2023/12/30 04:48:41;;;;;;;6.47;0.98;;;5.70;99.90;;;;;;4962716;28;20109;-74
2023/12/30 04:51:06;;;;;;;5.47;0.50;;;5.70;99.90;;;;;;4957036;28;20488;-74
2023/12/30 04:53:33;;;;;;;8.38;1.02;;;5.70;99.90;;;;;;4971707;28;20051;-74
2023/12/30 04:55:58;;;;;;;6.07;1.02;;;5.60;99.90;;;;;;4972945;28;20046;-75
2023/12/30 04:58:24;;;;;;;8.98;0.57;;;5.60;99.90;;;;;;4965707;28;20047;-73
2023/12/30 05:00:50;;;;;;;5.63;0.73;;;5.60;99.90;;;;;;4957365;28;20661;-74
2023/12/30 05:03:17;;;;;;;6.57;1.13;;;5.60;99.90;;;;;;4956241;28;20031;-73
2023/12/30 05:05:42;;;;;;;3.10;0.63;;;5.50;99.90;;;;;;4961202;28;20451;-75
2023/12/30 05:08:08;;;;;;;4.97;1.25;;;5.50;99.90;;;;;;4972610;28;20050;-74
2023/12/30 05:10:34;;;;;;;3.95;0.63;;;5.50;99.90;;;;;;4975168;28;20031;-73
2023/12/30 05:13:00;;;;;;;5.68;1.75;;;5.50;99.90;;;;;;4960405;28;20035;-75
2023/12/30 05:15:26;;;;;;;4.70;0.47;;;5.50;99.90;;;;;;4970752;28;20114;-74
2023/12/30 05:17:53;;;;;;;12.48;0.93;;;5.50;99.90;;;;;;4974836;28;20071;-72
2023/12/30 05:20:19;;;;;;;5.75;0.93;;;5.40;99.90;;;;;;4974430;28;20066;-74
2023/12/30 05:22:45;;;;;;;4.80;1.00;;;5.40;99.90;;;;;;4963580;28;20050;-74
2023/12/30 05:25:10;;;;;;;6.35;0.60;;;5.40;99.90;;;;;;4975735;28;20098;-74
2023/12/30 05:27:37;;;;;;;7.32;0.75;;;5.40;99.90;;;;;;4956907;28;20769;-72
2023/12/30 05:30:05;;;;;;;6.55;0.40;;;5.40;99.90;;;;;;4959244;28;20066;-73
2023/12/30 05:32:31;;;;;;;9.20;1.05;;;5.40;99.90;;;;;;4968012;28;20403;-75
2023/12/30 05:34:56;;;;;;;7.82;1.48;;;5.30;99.90;;;;;;4973743;28;20043;-74
2023/12/30 05:37:22;;;;;;;23.02;1.63;;;5.30;99.90;;;;;;4970297;28;20047;-74
2023/12/30 05:39:47;;;;;;;7.90;1.55;;;5.30;99.90;;;;;;4966278;28;20047;-74
2023/12/30 05:42:13;;;;;;;2.20;0.40;;;5.30;99.90;;;;;;4970943;28;20053;-74
2023/12/30 05:44:39;;;;;;;5.03;0.63;;;5.30;99.90;;;;;;4960673;28;20471;-74
2023/12/30 05:47:04;;;;;;;6.72;0.68;;;5.20;99.90;;;;;;4976742;28;20034;-74
2023/12/30 05:49:30;;;;;;;7.20;1.83;;;5.20;99.90;;;;;;4967770;28;20082;-74
2023/12/30 05:51:56;;;;;;;4.63;1.15;;;5.20;99.90;;;;;;4972760;28;20030;-74
2023/12/30 05:54:21;;;;;;;18.35;1.00;;;5.20;99.90;;;;;;4962205;28;20081;-73
2023/12/30 05:56:47;;;;;;;4.88;0.60;;;5.20;99.90;;;;;;4975808;28;20068;-73
2023/12/30 05:59:12;;;;;;;5.95;0.60;;;5.20;99.90;;;;;;4965756;28;20070;-74
2023/12/30 06:01:45;;;;;;;9.32;1.88;;;5.20;99.90;;;;;;4965365;28;20478;-75
2023/12/30 06:04:11;;;;;;;8.48;0.45;;;5.20;99.90;;;;;;4964478;28;20085;-74
2023/12/30 06:06:37;;;;;;;8.13;0.90;;;5.20;99.90;;;;;;4970681;28;20066;-74
2023/12/30 06:09:02;;;;;;;3.60;0.68;;;5.20;99.90;;;;;;4955117;28;20060;-74
2023/12/30 06:11:28;;;;;;;9.60;0.80;;;5.20;99.90;;;;;;4963592;28;20069;-74
2023/12/30 06:13:54;;;;;;;7.85;0.77;;;5.20;99.90;;;;;;4973364;28;20033;-74
2023/12/30 06:16:20;;;;;;;3.55;0.40;;;5.20;99.90;;;;;;4969103;28;20034;-74
2023/12/30 06:18:46;;;;;;;2.40;0.43;;;5.20;99.90;;;;;;4967676;28;20036;-73
2023/12/30 06:21:11;;;;;;;8.02;0.77;;;5.20;99.90;;;;;;4970429;28;20054;-74
2023/12/30 06:23:37;;;;;;;6.22;1.83;;;5.20;99.90;;;;;;4972704;28;20038;-74
2023/12/30 06:26:03;;;;;;;13.15;1.65;;;5.20;99.90;;;;;;4962764;28;20039;-73
2023/12/30 06:28:29;;;;;;;3.63;0.80;;;5.20;99.90;;;;;;4964121;28;20030;-73
2023/12/30 06:30:54;;;;;;;6.55;1.02;;;5.20;99.90;;;;;;4964042;28;20043;-74
2023/12/30 06:33:21;;;;;;;6.10;1.58;;;5.20;99.90;;;;;;4956365;28;20027;-74
2023/12/30 06:35:47;;;;;;;8.05;1.08;;;5.20;99.90;;;;;;4966885;28;20043;-74
2023/12/30 06:38:14;;;;;;;8.80;0.98;;;5.20;99.90;;;;;;4965757;28;20043;-74
2023/12/30 06:40:41;;;;;;;13.32;1.27;;;5.20;99.90;;;;;;4966036;28;20062;-73
2023/12/30 06:43:07;;;;;;;5.63;1.58;;;5.20;99.90;;;;;;4970438;28;20061;-75
2023/12/30 06:45:33;;;;;;;5.57;0.90;;;5.20;99.90;;;;;;4975866;28;20026;-75
2023/12/30 06:47:59;;;;;;;3.28;0.60;;;5.20;99.90;;;;;;4955372;28;20110;-73
2023/12/30 06:50:24;;;;;;;4.15;0.85;;;5.20;99.90;;;;;;4968647;28;20031;-74
2023/12/30 06:52:50;;;;;;;5.93;1.02;;;5.20;99.90;;;;;;4962219;28;20387;-76
2023/12/30 06:55:16;;;;;;;12.80;1.55;;;5.20;99.90;;;;;;4967286;28;20097;-73
2023/12/30 06:57:42;;;;;;;11.85;1.83;;;5.20;99.90;;;;;;4969407;28;20032;-74
2023/12/30 07:00:08;;;;;;;11.65;2.22;;;5.30;99.90;;;;;;4953427;28;20094;-75
2023/12/30 07:02:34;;;;;;;9.50;1.95;;;5.30;99.90;;;;;;4959120;28;20078;-74
2023/12/30 07:04:59;;;;;;;8.32;1.33;;;5.30;99.90;;;;;;4945089;28;20035;-74
2023/12/30 07:07:25;;;;;;;11.05;1.48;;;5.30;99.90;;;;;;4958584;28;20413;-74
2023/12/30 07:09:51;;;;;;;6.13;0.70;;;5.40;99.90;;;;;;4955549;29;20130;-74
2023/12/30 07:12:16;;;;;;;6.38;1.23;;;5.40;99.90;;;;;;4955603;28;20035;-74
2023/12/30 07:14:42;;;;;;;3.58;0.65;;;5.40;99.90;;;;;;4957863;28;20043;-75
2023/12/30 07:17:08;;;;;;;5.43;0.90;;;5.40;99.90;;;;;;4951348;28;20440;-75
2023/12/30 07:19:34;;;;;;;3.72;1.15;;;5.50;99.90;;;;;;4951635;29;20028;-75
2023/12/30 07:21:59;;;;;;;7.70;1.25;;;5.50;99.90;;;;;;4951155;28;20036;-74
2023/12/30 07:24:25;;;;;;;7.47;1.00;;;5.50;99.90;;;;;;4950338;28;20050;-74
2023/12/30 07:26:51;;;;;;;9.50;0.98;;;5.50;99.90;;;;;;4963494;28;20225;-74
2023/12/30 07:29:17;;;;;;;8.00;0.70;;;5.50;99.90;;;;;;4950284;28;20396;-72
2023/12/30 07:31:42;;;;;;;5.90;0.70;;;5.60;99.90;;;;;;4955897;28;20039;-74
2023/12/30 07:34:08;;;;;;;7.65;1.88;;;5.60;99.90;;;;;;4958085;28;20035;-72
2023/12/30 07:36:34;;;;;;;10.23;0.82;;;5.80;99.90;;;;;;4959158;28;20455;-74
2023/12/30 07:39:00;;;;;;;8.93;1.40;;;5.80;99.90;;;;;;4958534;28;20038;-74
2023/12/30 07:41:25;;;;;;;4.55;0.68;;;5.90;99.90;;;;;;4960727;28;20035;-74
2023/12/30 07:43:51;;;;;;;6.07;0.65;;;5.90;99.90;;;;;;4954374;28;20051;-73
2023/12/30 07:46:17;;;;;;;6.50;1.15;;;5.90;99.90;;;;;;4961327;28;20035;-74
2023/12/30 07:48:43;;;;;;;3.40;0.50;;;6.00;99.90;;;;;;4951370;28;20070;-74
2023/12/30 07:51:09;;;;;;;7.55;1.42;;;6.00;99.90;;;;;;4951506;28;20049;-73
2023/12/30 07:53:35;;;;;;;7.15;1.08;;;6.00;99.90;;;;;;4951555;28;20135;-73
2023/12/30 07:56:01;;;;;;;13.38;3.03;;;5.90;99.90;;;;;;4964890;28;20072;-73
2023/12/30 07:58:27;;;;;;;8.18;1.10;;;5.90;99.90;;;;;;4955130;28;20035;-73
2023/12/30 08:00:52;;;;;;;9.68;1.58;;;5.90;99.90;;;;;;4959917;28;20739;-76
2023/12/30 08:03:18;;;;;;;2.40;0.60;;;5.90;99.90;;;;;;4958088;28;20051;-74
2023/12/30 08:05:44;;;;;;;8.13;1.80;;;5.90;99.90;;;;;;4965821;28;20491;-73
2023/12/30 08:08:09;;;;;;;7.78;0.68;;;5.90;99.90;;;;;;4964006;28;20043;-74
2023/12/30 08:10:35;;;;;;;12.63;1.40;;;5.90;99.90;;;;;;4952837;28;20039;-73
2023/12/30 08:13:00;;;;;;;5.03;1.15;;;5.90;99.90;;;;;;4954964;28;20046;-74
2023/12/30 08:15:27;;;;;;;9.50;0.73;;;5.90;99.90;;;;;;4950915;28;20118;-72
2023/12/30 08:17:52;;;;;;;9.45;1.38;;;5.90;99.90;;;;;;4961442;28;20031;-74
2023/12/30 08:20:18;;;;;;;7.85;0.88;;;5.90;99.90;;;;;;4962817;28;20058;-74
2023/12/30 08:22:44;;;;;;;3.80;0.45;;;5.90;99.90;;;;;;4959964;28;20050;-74
2023/12/30 08:25:10;;;;;;;7.97;1.05;;;5.90;99.90;;;;;;4958212;28;20030;-74
2023/12/30 08:27:36;;;;;;;5.43;0.88;;;5.90;99.90;;;;;;4955529;28;20083;-73
2023/12/30 08:30:02;;;;;;;8.90;0.68;;;5.90;99.90;;;;;;4956839;28;20131;-75
2023/12/30 08:32:28;;;;;;;6.18;0.80;;;5.90;99.90;;;;;;4964477;28;20549;-74
2023/12/30 08:34:54;;;;;;;9.70;1.75;;;5.90;99.90;;;;;;4967016;28;20050;-73
2023/12/30 08:37:20;;;;;;;5.53;1.10;;;6.00;99.90;;;;;;4966116;28;20086;-74
2023/12/30 08:39:46;;;;;;;5.78;0.65;;;6.10;99.90;;;;;;4971666;28;20047;-73
2023/12/30 08:42:12;;;;;;;6.45;0.93;;;6.10;99.90;;;;;;4957642;28;20039;-74
2023/12/30 08:44:43;;;;;;;13.35;1.58;;;6.10;99.90;;;;;;4972888;28;20495;-74
2023/12/30 08:47:11;;;;;;;8.93;1.25;;;6.10;99.90;;;;;;4967755;28;20268;-73
2023/12/30 08:49:37;;;;;;;6.63;0.80;;;6.20;99.90;;;;;;4952367;28;20036;-74
2023/12/30 08:52:04;;;;;;;14.85;2.90;;;6.20;99.90;;;;;;4958114;28;20418;-73
2023/12/30 08:54:30;;;;;;;10.18;1.80;;;6.20;99.90;;;;;;4957720;28;20027;-74
2023/12/30 08:56:56;;;;;;;11.88;1.63;;;6.20;99.90;;;;;;4956826;28;20035;-73
2023/12/30 08:59:24;;;;;;;7.47;1.70;;;6.30;99.90;;;;;;4970252;28;20031;-74
2023/12/30 09:01:50;;;;;;;6.45;0.85;;;6.30;99.90;;;;;;4957011;28;20034;-74
2023/12/30 09:04:16;;;;;;;14.93;1.80;;;6.30;99.90;;;;;;4974234;28;20285;-74
2023/12/30 09:06:42;;;;;;;7.68;1.70;;;6.30;99.90;;;;;;4971227;28;20050;-74
2023/12/30 09:09:07;;;;;;;12.02;3.13;;;6.40;99.90;;;;;;4966027;28;20130;-74
2023/12/30 09:11:37;;;;;;;10.57;1.38;;;6.40;99.90;;;;;;4955109;28;20038;-72
2023/12/30 09:14:03;;;;;;;9.07;1.73;;;6.40;99.90;;;;;;4954790;28;20036;-72
2023/12/30 09:16:29;;;;;;;6.57;1.00;;;6.50;99.90;;;;;;4959140;28;20065;-72
2023/12/30 09:18:54;;;;;;;9.13;1.33;;;6.50;99.90;;;;;;4954686;28;20495;-74
2023/12/30 09:21:20;;;;;;;7.18;1.08;;;6.60;99.90;;;;;;4953398;28;20041;-73
2023/12/30 09:23:46;;;;;;;6.43;1.13;;;6.70;99.90;;;;;;4952327;28;20071;-75
2023/12/30 09:26:14;;;;;;;12.70;2.20;;;6.70;99.90;;;;;;4960965;28;20027;-74
2023/12/30 09:28:39;;;;;;;12.32;2.00;;;6.80;99.90;;;;;;4967150;28;20082;-73
2023/12/30 09:31:05;;;;;;;11.13;1.40;;;6.90;99.90;;;;;;4963769;28;20030;-75
2023/12/30 09:33:31;;;;;;;18.88;1.88;;;7.00;99.90;;;;;;4971700;28;20046;-73
2023/12/30 09:35:57;;;;;;;14.73;1.60;;;7.10;99.90;;;;;;4960253;28;20062;-76
2023/12/30 09:38:23;;;;;;;5.82;1.67;;;7.10;99.90;;;;;;4971902;28;20035;-74
2023/12/30 09:40:50;;;;;;;12.38;1.08;;;7.10;99.90;;;;;;4960540;28;20041;-74
2023/12/30 09:43:23;;;;;;;7.28;0.90;;;7.20;99.90;;;;;;4963858;28;20031;-74
2023/12/30 09:45:51;;;;;;;11.20;1.52;;;7.30;99.90;;;;;;4958611;28;20035;-74
2023/12/30 09:48:19;;;;;;;8.95;1.00;;;7.30;99.90;;;;;;4955687;28;20024;-74
2023/12/30 09:50:45;;;;;;;5.80;1.17;;;7.30;99.90;;;;;;4957740;28;20484;-73
2023/12/30 09:53:11;;;;;;;8.07;1.05;;;7.40;99.90;;;;;;4953401;28;20043;-74
2023/12/30 09:55:36;;;;;;;15.82;1.42;;;7.40;99.90;;;;;;4949834;28;20054;-74
2023/12/30 09:58:03;;;;;;;14.20;1.40;;;7.40;99.90;;;;;;4953272;28;20126;-77
2023/12/30 10:00:32;;;;;;;6.53;0.93;;;7.40;99.90;;;;;;4959354;28;20055;-74
2023/12/30 10:03:00;;;;;;;4.65;0.73;;;7.40;99.90;;;;;;4963665;28;20043;-74
2023/12/30 10:05:25;;;;;;;5.05;1.27;;;7.50;99.90;;;;;;4960754;28;20035;-73
2023/12/30 10:07:52;;;;;;;11.18;1.80;;;7.40;99.90;;;;;;4967442;28;20030;-74
2023/12/30 10:10:41;;;;;;;12.95;2.65;;;7.50;99.90;;;;;;4949581;28;20062;-74
2023/12/30 10:13:06;;;;;;;14.30;1.45;;;7.60;99.90;;;;;;4955374;28;20053;-74
2023/12/30 10:15:32;;;;;;;4.70;0.90;;;7.60;99.90;;;;;;4953786;28;20047;-72
2023/12/30 10:17:57;;;;;;;10.55;1.42;;;7.70;99.90;;;;;;4964763;28;20806;-75
2023/12/30 10:20:23;;;;;;;5.40;0.73;;;7.70;99.90;;;;;;4964920;28;20053;-73
2023/12/30 10:22:50;;;;;;;5.57;1.10;;;7.70;99.90;;;;;;4960694;28;20036;-74
2023/12/30 10:25:15;;;;;;;11.57;1.40;;;7.80;99.90;;;;;;4953733;28;20038;-74
2023/12/30 10:27:41;;;;;;;8.63;1.92;;;7.90;99.90;;;;;;4952933;28;20031;-75
2023/12/30 10:30:08;;;;;;;15.18;1.58;;;8.00;99.90;;;;;;4954654;28;20031;-74
2023/12/30 10:32:34;;;;;;;9.07;0.98;;;8.10;99.90;;;;;;4963006;28;20041;-75
2023/12/30 10:34:59;;;;;;;14.13;1.40;;;8.10;99.90;;;;;;4948882;28;20023;-73
2023/12/30 10:37:29;;;;;;;8.25;1.33;;;8.20;99.90;;;;;;4955098;28;20579;-71
2023/12/30 10:39:55;;;;;;;7.20;2.20;;;8.20;99.90;;;;;;4953543;28;20026;-72
2023/12/30 10:42:21;;;;;;;9.30;2.28;;;8.20;99.90;;;;;;4959061;28;20047;-73
2023/12/30 10:44:46;;;;;;;9.75;1.50;;;8.30;99.90;;;;;;4966942;28;20402;-73
2023/12/30 10:47:15;;;;;;;9.18;1.55;;;8.20;99.90;;;;;;4959404;28;20043;-75
2023/12/30 10:49:52;;;;;;;16.73;1.23;;;8.30;99.90;;;;;;4958512;28;20805;-75
2023/12/30 10:52:23;;;;;;;8.65;1.40;;;8.30;99.90;;;;;;4960469;28;20274;-72
2023/12/30 10:54:58;;;;;;;10.75;2.08;;;8.30;99.90;;;;;;4963793;28;20053;-74
2023/12/30 10:57:34;;;;;;;19.67;3.67;;;8.30;99.90;;;;;;4961304;28;20034;-74
2023/12/30 11:00:06;;;;;;;10.48;1.30;;;8.30;99.90;;;;;;4974419;28;20046;-74
2023/12/30 11:02:33;;;;;;;8.55;1.63;;;8.30;99.90;;;;;;4965776;28;20160;-74
2023/12/30 11:05:01;;;;;;;12.43;1.50;;;8.30;99.90;;;;;;4960108;28;20097;-74
2023/12/30 11:07:27;;;;;;;9.00;2.15;;;8.40;99.90;;;;;;4969938;28;20027;-74
2023/12/30 11:09:53;;;;;;;22.52;2.95;;;8.40;99.90;;;;;;4957360;28;20100;-73
2023/12/30 11:12:19;;;;;;;10.02;1.50;;;8.50;99.90;;;;;;4959212;28;20475;-73
2023/12/30 11:14:47;;;;;;;11.48;2.00;;;8.60;99.90;;;;;;4958130;28;20027;-74
2023/12/30 11:17:33;;;;;;;10.68;2.58;;;8.60;99.90;;;;;;4966685;28;20394;-74
2023/12/30 11:20:41;;;;;;;14.32;2.00;;;8.70;99.90;;;;;;4962936;28;20031;-74
2023/12/30 11:23:07;;;;;;;17.40;3.78;;;8.70;99.90;;;;;;4932888;29;20504;-74
2023/12/30 11:25:37;;;;;;;15.75;3.05;;;8.70;99.90;;;;;;4960593;28;20027;-74
2023/12/30 11:28:20;;;;;;;18.60;2.63;;;8.70;99.90;;;;;;4968890;28;20122;-75
2023/12/30 11:30:57;;;;;;;15.50;1.80;;;8.80;99.90;;;;;;4958542;28;20050;-73
2023/12/30 11:33:23;;;;;;;19.67;2.20;;;8.80;99.90;;;;;;4946251;28;20050;-74
2023/12/30 11:35:54;;;;;;;13.27;2.25;;;8.90;99.90;;;;;;4949968;28;20061;-73
2023/12/30 11:38:20;;;;;;;16.10;2.25;;;9.00;99.90;;;;;;4948103;28;20038;-74
2023/12/30 11:40:54;;;;;;;14.20;3.13;;;9.00;99.90;;;;;;4950721;28;20053;-75
2023/12/30 11:43:20;;;;;;;16.17;3.95;;;9.00;99.90;;;;;;4928583;29;20039;-73
2023/12/30 11:45:46;;;;;;;19.83;2.65;;;9.10;99.90;;;;;;4931524;29;20072;-75
2023/12/30 11:48:12;;;;;;;9.70;2.10;;;9.10;99.90;;;;;;4927517;29;20059;-73
2023/12/30 11:50:37;;;;;;;14.23;2.45;;;9.10;99.90;;;;;;4949568;28;20035;-74
2023/12/30 11:53:03;;;;;;;19.30;2.33;;;9.10;99.90;;;;;;4946306;28;20039;-73
2023/12/30 11:55:29;;;;;;;12.27;1.73;;;9.10;99.90;;;;;;4955313;28;20039;-74
2023/12/30 11:57:55;;;;;;;9.85;2.47;;;9.20;99.90;;;;;;4966336;28;20435;-73
2023/12/30 12:00:21;;;;;;;11.18;1.77;;;9.20;99.90;;;;;;4966323;28;20039;-74
2023/12/30 12:02:47;;;;;;;9.43;2.50;;;9.20;99.90;;;;;;4952021;28;20373;-73
2023/12/30 12:05:12;;;;;;;15.13;2.88;;;9.20;99.90;;;;;;4943728;28;20024;-74
2023/12/30 12:07:38;;;;;;;17.77;2.47;;;9.20;99.90;;;;;;4952411;28;20483;-74
2023/12/30 12:10:04;;;;;;;8.55;3.00;;;9.20;99.90;;;;;;4949375;28;20059;-73
2023/12/30 12:12:37;;;;;;;14.85;3.08;;;9.20;99.90;;;;;;4954253;28;20049;-74
2023/12/30 12:15:04;;;;;;;14.27;3.25;;;9.20;99.90;;;;;;4966816;28;20039;-75
2023/12/30 12:17:30;;;;;;;13.45;3.03;;;9.30;99.90;;;;;;4960139;28;20476;-74
2023/12/30 12:19:56;;;;;;;12.27;3.75;;;9.30;99.90;;;;;;4953216;28;20053;-74
2023/12/30 12:22:22;;;;;;;19.27;2.42;;;9.20;99.90;;;;;;4949584;28;20039;-72
2023/12/30 12:24:48;;;;;;;11.77;3.42;;;9.30;99.90;;;;;;4964125;28;20032;-75
2023/12/30 12:27:22;;;;;;;6.97;2.63;;;9.30;99.90;;;;;;4961338;28;20039;-75
2023/12/30 12:29:54;;;;;;;15.85;3.80;;;9.30;99.90;;;;;;4951430;28;20376;-74
2023/12/30 12:32:21;;;;;;;19.38;5.28;;;9.20;99.90;;;;;;4945522;28;20035;-74
2023/12/30 12:34:48;;;;;;;13.23;3.83;;;9.20;99.90;;;;;;4959884;28;20062;-74
2023/12/30 12:37:15;;;;;;;14.38;4.32;;;9.20;99.90;;;;;;4958391;28;20082;-74
2023/12/30 12:39:45;;;;;;;17.38;5.85;;;9.20;99.90;;;;;;4952388;28;20122;-74
2023/12/30 12:42:11;;;;;;;22.10;4.82;;;9.30;99.90;;;;;;4950459;28;20027;-72
2023/12/30 12:44:38;;;;;;;18.48;5.97;;;9.20;99.90;;;;;;4952774;28;20672;-74
2023/12/30 12:47:05;;;;;;;15.88;4.57;;;9.20;99.90;;;;;;4950246;28;20059;-75
2023/12/30 12:49:30;;;;;;;20.60;4.78;;;9.30;99.90;;;;;;4947397;28;20180;-73